Map

Track Data

SID SEASON NUMBER BASIN SUBBASIN NAME ISO_TIME NATURE LAT LON WMO_WIND WMO_PRES WMO_AGENCY TRACK_TYPE DIST2LAND LANDFALL IFLAG USA_AGENCY USA_ATCF_ID USA_LAT USA_LON USA_RECORD USA_STATUS USA_WIND USA_PRES USA_SSHS USA_R34_NE USA_R34_SE USA_R34_SW USA_R34_NW USA_R50_NE USA_R50_SE USA_R50_SW USA_R50_NW USA_R64_NE USA_R64_SE USA_R64_SW USA_R64_NW USA_POCI USA_ROCI USA_RMW USA_EYE TOKYO_LAT TOKYO_LON TOKYO_GRADE TOKYO_WIND TOKYO_PRES TOKYO_R50_DIR TOKYO_R50_LONG TOKYO_R50_SHORT TOKYO_R30_DIR TOKYO_R30_LONG TOKYO_R30_SHORT TOKYO_LAND CMA_LAT CMA_LON CMA_CAT CMA_WIND CMA_PRES HKO_LAT HKO_LON HKO_CAT HKO_WIND HKO_PRES NEWDELHI_LAT NEWDELHI_LON NEWDELHI_GRADE NEWDELHI_WIND NEWDELHI_PRES NEWDELHI_CI NEWDELHI_DP NEWDELHI_POCI REUNION_LAT REUNION_LON REUNION_TYPE REUNION_WIND REUNION_PRES REUNION_TNUM REUNION_CI REUNION_RMW REUNION_R34_NE REUNION_R34_SE REUNION_R34_SW REUNION_R34_NW REUNION_R50_NE REUNION_R50_SE REUNION_R50_SW REUNION_R50_NW REUNION_R64_NE REUNION_R64_SE REUNION_R64_SW REUNION_R64_NW BOM_LAT BOM_LON BOM_TYPE BOM_WIND BOM_PRES BOM_TNUM BOM_CI BOM_RMW BOM_R34_NE BOM_R34_SE BOM_R34_SW BOM_R34_NW BOM_R50_NE BOM_R50_SE BOM_R50_SW BOM_R50_NW BOM_R64_NE BOM_R64_SE BOM_R64_SW BOM_R64_NW BOM_ROCI BOM_POCI BOM_EYE BOM_POS_METHOD BOM_PRES_METHOD NADI_LAT NADI_LON NADI_CAT NADI_WIND NADI_PRES WELLINGTON_LAT WELLINGTON_LON WELLINGTON_WIND WELLINGTON_PRES DS824_LAT DS824_LON DS824_STAGE DS824_WIND DS824_PRES TD9636_LAT TD9636_LON TD9636_STAGE TD9636_WIND TD9636_PRES TD9635_LAT TD9635_LON TD9635_WIND TD9635_PRES TD9635_ROCI NEUMANN_LAT NEUMANN_LON NEUMANN_CLASS NEUMANN_WIND NEUMANN_PRES MLC_LAT MLC_LON MLC_CLASS MLC_WIND MLC_PRES USA_GUST BOM_GUST BOM_GUST_PER REUNION_GUST REUNION_GUST_PER USA_SEAHGT USA_SEARAD_NE USA_SEARAD_SE USA_SEARAD_SW USA_SEARAD_NW STORM_SPEED STORM_DIR
1985201N12256 1985 56 EP MM JIMENA 1985-07-20 00:00:00 TS 11.5000 -103.700 25 hurdat_epa main 707 707 O_________O___ hurdat_epa EP101985 11.5000 -103.700 TD 25 -1 11.5000 -103.700 1 25 8 269
1985201N12256 1985 56 EP MM JIMENA 1985-07-20 03:00:00 TS 11.4953 -104.094 main 725 725 P_________P___ EP101985 11.4926 -104.090 TD 25 -1 11.5033 -104.106 1 25 8 270
1985201N12256 1985 56 EP MM JIMENA 1985-07-20 06:00:00 TS 11.5038 -104.505 25 hurdat_epa main 745 745 O_________P___ hurdat_epa EP101985 11.5000 -104.500 TD 25 -1 11.5152 -104.520 1 25 8 273
1985201N12256 1985 56 EP MM JIMENA 1985-07-20 09:00:00 TS 11.5373 -104.944 main 767 765 P_________P___ EP101985 11.5350 -104.943 TD 25 -1 11.5444 -104.949 1 25 9 276
1985201N12256 1985 56 EP MM JIMENA 1985-07-20 12:00:00 TS 11.6000 -105.400 25 hurdat_epa main 775 775 O_________O___ hurdat_epa EP101985 11.6000 -105.400 TD 25 -1 11.6000 -105.400 1 25 9 279
1985201N12256 1985 56 EP MM JIMENA 1985-07-20 15:00:00 TS 11.6805 -105.856 main 782 782 P_________P___ EP101985 11.6774 -105.850 TD 25 -1 11.6898 -105.875 1 26 9 283
1985201N12256 1985 56 EP MM JIMENA 1985-07-20 18:00:00 TS 11.8044 -106.313 25 hurdat_epa main 787 784 O_________P___ hurdat_epa EP101985 11.8000 -106.300 TD 25 -1 11.8178 -106.352 1 27 10 288
1985201N12256 1985 56 EP MM JIMENA 1985-07-20 21:00:00 TS 11.9742 -106.786 main 789 784 P_________P___ EP101985 11.9700 -106.780 TD 27 -1 11.9868 -106.803 1 28 10 295
1985201N12256 1985 56 EP MM JIMENA 1985-07-21 00:00:00 TS 12.2000 -107.200 30 hurdat_epa main 789 778 O_________O___ hurdat_epa EP101985 12.2000 -107.200 TD 30 -1 12.2000 -107.200 1 30 9 307
1985201N12256 1985 56 EP MM JIMENA 1985-07-21 03:00:00 TS 12.4808 -107.481 main 778 762 P_________P___ EP101985 12.4849 -107.480 TD 30 -1 12.4685 -107.483 1 30 8 320
1985201N12256 1985 56 EP MM JIMENA 1985-07-21 06:00:00 TS 12.7942 -107.704 30 hurdat_epa main 762 748 O_________P___ hurdat_epa EP101985 12.8000 -107.700 TD 30 -1 12.7767 -107.715 1 30 8 325
1985201N12256 1985 56 EP MM JIMENA 1985-07-21 09:00:00 TS 13.1047 -107.931 main 748 736 P_________P___ EP101985 13.1074 -107.928 TD 30 -1 13.0966 -107.940 1 30 8 321
1985201N12256 1985 56 EP MM JIMENA 1985-07-21 12:00:00 TS 13.4000 -108.200 30 hurdat_epa main 743 734 O_________O___ hurdat_epa EP101985 13.4000 -108.200 TD 30 -1 13.4000 -108.200 1 30 8 312
1985201N12256 1985 56 EP MM JIMENA 1985-07-21 15:00:00 TS 13.6635 -108.578 main 736 733 P_________P___ EP101985 13.6650 -108.578 TD 32 -1 13.6591 -108.581 1 32 9 303
1985201N12256 1985 56 EP MM JIMENA 1985-07-21 18:00:00 TS 13.8989 -109.000 35 hurdat_epa main 743 740 O_________P___ hurdat_epa EP101985 13.9000 -109.000 TS 35 0 13.8955 -109.000 1 35 9 299
1985201N12256 1985 56 EP MM JIMENA 1985-07-21 21:00:00 TS 14.1135 -109.422 main 752 750 P_________P___ EP101985 14.1150 -109.423 TS 37 0 14.1091 -109.419 1 37 9 297
1985201N12256 1985 56 EP MM JIMENA 1985-07-22 00:00:00 TS 14.3000 -109.800 40 hurdat_epa main 764 763 O_________O___ hurdat_epa EP101985 14.3000 -109.800 TS 40 0 14.3000 -109.800 2 40 7 299
1985201N12256 1985 56 EP MM JIMENA 1985-07-22 03:00:00 TS 14.4588 -110.076 main 771 770 P_________P___ EP101985 14.4574 -110.073 TS 42 0 14.4630 -110.086 2 41 6 302
1985201N12256 1985 56 EP MM JIMENA 1985-07-22 06:00:00 TS 14.6017 -110.308 45 hurdat_epa main 778 778 O_________P___ hurdat_epa EP101985 14.6000 -110.300 TS 45 0 14.6069 -110.331 2 42 5 302
1985201N12256 1985 56 EP MM JIMENA 1985-07-22 09:00:00 TS 14.7493 -110.547 main 786 785 P_________P___ EP101985 14.7499 -110.543 TS 45 0 14.7474 -110.560 2 43 6 302
1985201N12256 1985 56 EP MM JIMENA 1985-07-22 12:00:00 TS 14.9000 -110.800 45 hurdat_epa main 793 793 O_________O___ hurdat_epa EP101985 14.9000 -110.800 TS 45 0 14.9000 -110.800 2 45 6 300
1985201N12256 1985 56 EP MM JIMENA 1985-07-22 15:00:00 TS 15.0486 -111.089 main 809 802 P_________P___ EP101985 15.0350 -111.093 TS 52 0 15.0896 -111.078 2 48 7 299
1985201N12256 1985 56 EP MM JIMENA 1985-07-22 18:00:00 TS 15.2231 -111.393 60 hurdat_epa main 819 812 O_________P___ hurdat_epa EP101985 15.2000 -111.400 TS 60 0 15.2923 -111.370 2 52 7 306
1985201N12256 1985 56 EP MM JIMENA 1985-07-22 21:00:00 TS 15.4622 -111.689 main 825 825 P_________P___ EP101985 15.4499 -111.692 TS 60 0 15.4989 -111.678 2 56 8 309
1985201N12256 1985 56 EP MM JIMENA 1985-07-23 00:00:00 TS 15.7000 -112.000 60 hurdat_epa main 832 819 O_________O___ hurdat_epa EP101985 15.7000 -112.000 TS 60 0 15.7000 -112.000 2 60 7 303
1985201N12256 1985 56 EP MM JIMENA 1985-07-23 03:00:00 TS 15.8626 -112.339 main 819 818 P_________P___ EP101985 15.8575 -112.343 TS 60 0 15.8780 -112.328 2 62 7 295
1985201N12256 1985 56 EP MM JIMENA 1985-07-23 06:00:00 TS 16.0124 -112.693 60 hurdat_epa main 822 812 O_________P___ hurdat_epa EP101985 16.0000 -112.700 TS 60 0 16.0498 -112.670 2 65 8 297
1985201N12256 1985 56 EP MM JIMENA 1985-07-23 09:00:00 TS 16.1997 -113.039 main 812 804 P_________P___ EP101985 16.1924 -113.043 TS 65 1 16.2217 -113.028 2 67 8 300
1985201N12256 1985 56 EP MM JIMENA 1985-07-23 12:00:00 TS 16.4000 -113.400 70 hurdat_epa main 809 803 O_________O___ hurdat_epa EP101985 16.4000 -113.400 HU 70 1 16.4000 -113.400 3 70 8 299
1985201N12256 1985 56 EP MM JIMENA 1985-07-23 15:00:00 TS 16.5982 -113.796 main 808 804 P_________P___ EP101985 16.6000 -113.793 HU 72 1 16.5930 -113.806 3 72 9 297
1985201N12256 1985 56 EP MM JIMENA 1985-07-23 18:00:00 TS 16.7982 -114.206 75 hurdat_epa main 811 807 O_________P___ hurdat_epa EP101985 16.8000 -114.200 HU 75 1 16.7927 -114.222 3 75 9 297
1985201N12256 1985 56 EP MM JIMENA 1985-07-23 21:00:00 TS 16.9990 -114.618 main 816 813 P_________P___ EP101985 17.0000 -114.615 HU 77 1 16.9961 -114.628 3 77 9 298
1985201N12256 1985 56 EP MM JIMENA 1985-07-24 00:00:00 TS 17.2000 -115.000 80 hurdat_epa main 823 821 O_________O___ hurdat_epa EP101985 17.2000 -115.000 HU 80 1 17.2000 -115.000 4 80 8 301
1985201N12256 1985 56 EP MM JIMENA 1985-07-24 03:00:00 TS 17.3978 -115.319 main 827 824 P_________P___ EP101985 17.3999 -115.323 HU 85 2 17.3914 -115.307 4 88 7 305
1985201N12256 1985 56 EP MM JIMENA 1985-07-24 06:00:00 TS 17.5961 -115.595 90 hurdat_epa main 831 830 O_________P___ hurdat_epa EP101985 17.6000 -115.600 HU 90 2 17.5844 -115.581 4 97 6 308
1985201N12256 1985 56 EP MM JIMENA 1985-07-24 09:00:00 TS 17.7906 -115.847 main 830 830 P_________P___ EP101985 17.7924 -115.850 HU 102 3 17.7852 -115.839 4 106 6 310
1985201N12256 1985 56 EP MM JIMENA 1985-07-24 12:00:00 TS 18.0000 -116.100 115 hurdat_epa main 838 838 O_________O___ hurdat_epa EP101985 18.0000 -116.100 HU 115 4 18.0000 -116.100 4 115 7 311
1985201N12256 1985 56 EP MM JIMENA 1985-07-24 15:00:00 TS 18.2418 -116.393 main 848 834 P_________P___ EP101985 18.2425 -116.393 HU 115 4 18.2396 -116.393 4 112 8 311
1985201N12256 1985 56 EP MM JIMENA 1985-07-24 18:00:00 TS 18.4981 -116.698 115 hurdat_epa main 840 833 O_________P___ hurdat_epa EP101985 18.5000 -116.700 HU 115 4 18.4924 -116.693 4 110 8 311
1985201N12256 1985 56 EP MM JIMENA 1985-07-24 21:00:00 TS 18.7497 -116.999 main 840 828 P_________P___ EP101985 18.7500 -117.000 HU 110 3 18.7490 -116.996 4 107 8 311
1985201N12256 1985 56 EP MM JIMENA 1985-07-25 00:00:00 TS 19.0000 -117.300 105 hurdat_epa main 832 829 O_________O___ hurdat_epa EP101985 19.0000 -117.300 HU 105 3 19.0000 -117.300 4 105 8 312
1985201N12256 1985 56 EP MM JIMENA 1985-07-25 03:00:00 TS 19.2531 -117.598 main 827 825 P_________P___ EP101985 19.2575 -117.600 HU 102 3 19.2401 -117.592 4 103 8 311
1985201N12256 1985 56 EP MM JIMENA 1985-07-25 06:00:00 TS 19.4930 -117.896 100 hurdat_epa main 833 832 O_________P___ hurdat_epa EP101985 19.5000 -117.900 HU 100 3 19.4721 -117.885 4 102 7 309
1985201N12256 1985 56 EP MM JIMENA 1985-07-25 09:00:00 TS 19.7095 -118.191 main 840 839 P_________P___ EP101985 19.7149 -118.193 HU 100 3 19.6932 -118.186 4 101 7 306
1985201N12256 1985 56 EP MM JIMENA 1985-07-25 12:00:00 TS 19.9000 -118.500 100 hurdat_epa main 848 848 O_________O___ hurdat_epa EP101985 19.9000 -118.500 HU 100 3 19.9000 -118.500 4 100 7 300
1985201N12256 1985 56 EP MM JIMENA 1985-07-25 15:00:00 TS 20.0598 -118.839 main 857 857 P_________P___ EP101985 20.0500 -118.843 HU 92 2 20.0892 -118.828 4 96 7 296
1985201N12256 1985 56 EP MM JIMENA 1985-07-25 18:00:00 TS 20.2162 -119.193 85 hurdat_epa main 883 883 O_________P___ hurdat_epa EP101985 20.2000 -119.200 HU 85 2 20.2647 -119.171 4 92 7 298
1985201N12256 1985 56 EP MM JIMENA 1985-07-25 21:00:00 TS 20.4081 -119.539 main 895 895 P_________P___ EP101985 20.3999 -119.543 HU 85 2 20.4329 -119.528 4 88 8 300
1985201N12256 1985 56 EP MM JIMENA 1985-07-26 00:00:00 TS 20.6000 -119.900 85 hurdat_epa main 918 918 O_________O___ hurdat_epa EP101985 20.6000 -119.900 HU 85 2 20.6000 -119.900 4 85 8 296
1985201N12256 1985 56 EP MM JIMENA 1985-07-26 03:00:00 TS 20.7562 -120.292 main 932 932 P_________P___ EP101985 20.7500 -120.293 HU 80 1 20.7749 -120.290 4 80 8 293
1985201N12256 1985 56 EP MM JIMENA 1985-07-26 06:00:00 TS 20.9125 -120.698 75 hurdat_epa main 950 949 O_________P___ hurdat_epa EP101985 20.9000 -120.700 HU 75 1 20.9499 -120.693 4 75 8 295
1985201N12256 1985 56 EP MM JIMENA 1985-07-26 09:00:00 TS 21.1062 -121.105 main 961 959 P_________P___ EP101985 21.1000 -121.107 HU 70 1 21.1249 -121.099 4 70 8 297
1985201N12256 1985 56 EP MM JIMENA 1985-07-26 12:00:00 TS 21.3000 -121.500 65 hurdat_epa main 970 969 O_________O___ hurdat_epa EP101985 21.3000 -121.500 HU 65 1 21.3000 -121.500 4 65 8 297
1985201N12256 1985 56 EP MM JIMENA 1985-07-26 15:00:00 TS 21.4570 -121.854 main 982 982 P_________P___ EP101985 21.4498 -121.850 HU 60 0 21.4785 -121.866 4 60 7 296
1985201N12256 1985 56 EP MM JIMENA 1985-07-26 18:00:00 TS 21.6142 -122.207 55 hurdat_epa main 996 995 O_________P___ hurdat_epa EP101985 21.6000 -122.200 TS 55 0 21.6566 -122.228 4 55 8 297
1985201N12256 1985 56 EP MM JIMENA 1985-07-26 21:00:00 TS 21.8078 -122.595 main 1010 1010 P_________P___ EP101985 21.8000 -122.592 TS 50 0 21.8315 -122.601 4 50 8 298
1985201N12256 1985 56 EP MM JIMENA 1985-07-27 00:00:00 TS 22.0000 -123.000 45 hurdat_epa main 1027 1027 O_________O___ hurdat_epa EP101985 22.0000 -123.000 TS 45 0 22.0000 -123.000 2 45 8 296
1985201N12256 1985 56 EP MM JIMENA 1985-07-27 03:00:00 TS 22.1601 -123.387 main 1045 1045 P_________P___ EP101985 22.1572 -123.378 TS 42 0 22.1686 -123.414 2 42 8 292
1985201N12256 1985 56 EP MM JIMENA 1985-07-27 06:00:00 TS 22.3072 -123.815 40 hurdat_epa main 1071 1071 O_________P___ hurdat_epa EP101985 22.3000 -123.800 TS 40 0 22.3287 -123.860 2 40 9 289
1985201N12256 1985 56 EP MM JIMENA 1985-07-27 09:00:00 TS 22.4673 -124.328 main 1100 1100 P_________P___ EP101985 22.4649 -124.320 TS 37 0 22.4745 -124.351 2 37 10 286
1985201N12256 1985 56 EP MM JIMENA 1985-07-27 12:00:00 TS 22.6000 -124.900 35 hurdat_epa main 1146 1146 O_________O___ hurdat_epa EP101985 22.6000 -124.900 TS 35 0 22.6000 -124.900 2 35 11 281
1985201N12256 1985 56 EP MM JIMENA 1985-07-27 15:00:00 TS 22.6679 -125.479 main 1193 1193 P_________P___ EP101985 22.6571 -125.470 TS 32 -1 22.7005 -125.506 2 33 11 276
1985201N12256 1985 56 EP MM JIMENA 1985-07-27 18:00:00 TS 22.7199 -126.117 30 hurdat_epa main 1247 1247 O_________P___ hurdat_epa EP101985 22.7000 -126.100 TD 30 -1 22.7796 -126.168 2 32 13 277
1985201N12256 1985 56 EP MM JIMENA 1985-07-27 21:00:00 TS 22.8109 -126.833 main 1305 1305 P_________P___ EP101985 22.7998 -126.820 TD 30 -1 22.8439 -126.871 2 31 14 278
1985201N12256 1985 56 EP MM JIMENA 1985-07-28 00:00:00 TS 22.9000 -127.600 30 hurdat_epa main 1373 1373 O_________O___ hurdat_epa EP101985 22.9000 -127.600 TD 30 -1 22.9000 -127.600 1 30 14 276
1985201N12256 1985 56 EP MM JIMENA 1985-07-28 03:00:00 TS 22.9595 -128.395 main 1443 1443 P_________P___ EP101985 22.9574 -128.408 TD 30 -1 22.9656 -128.357 1 28 15 274
1985201N12256 1985 56 EP MM JIMENA 1985-07-28 06:00:00 TS 23.0058 -129.182 30 hurdat_epa main 1518 1518 O_________P___ hurdat_epa EP101985 23.0000 -129.200 TD 30 -1 23.0231 -129.130 1 27 14 274
1985201N12256 1985 56 EP MM JIMENA 1985-07-28 09:00:00 TS 23.0545 -129.920 main 1556 1556 P_________P___ EP101985 23.0497 -129.930 TD 27 -1 23.0688 -129.888 1 26 13 274
1985201N12256 1985 56 EP MM JIMENA 1985-07-28 12:00:00 TS 23.1000 -130.600 25 hurdat_epa main 1597 1597 O_________O___ hurdat_epa EP101985 23.1000 -130.600 TD 25 -1 23.1000 -130.600 1 25 12 275
1985201N12256 1985 56 EP MM JIMENA 1985-07-28 15:00:00 TS 23.1523 -131.228 main 1624 1624 P_________P___ EP101985 23.1647 -131.222 TD 25 -1 23.1152 -131.243 1 23 11 274
1985201N12256 1985 56 EP MM JIMENA 1985-07-28 18:00:00 TS 23.1794 -131.807 25 hurdat_epa main 1662 1662 O_________P___ hurdat_epa EP101985 23.2000 -131.800 TD 25 -1 23.1177 -131.828 1 22 10 270
1985201N12256 1985 56 EP MM JIMENA 1985-07-28 21:00:00 TS 23.1557 -132.360 main 1701 1701 P_________P___ EP101985 23.1704 -132.355 TD 22 -1 23.1114 -132.374 1 21 10 265
1985201N12256 1985 56 EP MM JIMENA 1985-07-29 00:00:00 TS 23.1000 -132.900 20 hurdat_epa main 1743 O_________O___ hurdat_epa EP101985 23.1000 -132.900 TD 20 -1 23.1000 -132.900 1 20 10 264

About IBTrACS Database

This database is a web-friendly format of International Best Track Archive for Climate Stewardship (IBTrACS), a global best track data archive curated by NOAA dating back to 1842.

Updated: 2021-10-21